sensor_id;sensor_type;location;lat;lon;timestamp;P1;durP1;ratioP1;P2;durP2;ratioP2
8665;SDS011;4370;48.916;8.380;2023-01-24T00:01:19;20.27;;;12.87;;
8665;SDS011;4370;48.916;8.380;2023-01-24T00:03:45;17.90;;;11.60;;
8665;SDS011;4370;48.916;8.380;2023-01-24T00:06:11;18.93;;;12.20;;
8665;SDS011;4370;48.916;8.380;2023-01-24T00:08:37;18.90;;;12.63;;
8665;SDS011;4370;48.916;8.380;2023-01-24T00:11:04;19.37;;;11.60;;
8665;SDS011;4370;48.916;8.380;2023-01-24T00:13:31;19.03;;;11.70;;
8665;SDS011;4370;48.916;8.380;2023-01-24T00:16:04;17.20;;;11.40;;
8665;SDS011;4370;48.916;8.380;2023-01-24T00:18:37;19.03;;;12.30;;
8665;SDS011;4370;48.916;8.380;2023-01-24T00:21:05;18.93;;;12.97;;
8665;SDS011;4370;48.916;8.380;2023-01-24T00:23:37;19.50;;;12.27;;
8665;SDS011;4370;48.916;8.380;2023-01-24T00:26:03;18.63;;;11.97;;
8665;SDS011;4370;48.916;8.380;2023-01-24T00:28:29;18.53;;;11.80;;
8665;SDS011;4370;48.916;8.380;2023-01-24T00:30:55;20.73;;;11.73;;
8665;SDS011;4370;48.916;8.380;2023-01-24T00:33:21;19.33;;;12.07;;
8665;SDS011;4370;48.916;8.380;2023-01-24T00:35:49;17.57;;;11.60;;
8665;SDS011;4370;48.916;8.380;2023-01-24T00:38:16;21.53;;;12.57;;
8665;SDS011;4370;48.916;8.380;2023-01-24T00:40:41;20.33;;;12.30;;
8665;SDS011;4370;48.916;8.380;2023-01-24T00:43:07;18.80;;;11.70;;
8665;SDS011;4370;48.916;8.380;2023-01-24T00:45:36;21.70;;;12.00;;
8665;SDS011;4370;48.916;8.380;2023-01-24T00:48:03;18.03;;;11.53;;
8665;SDS011;4370;48.916;8.380;2023-01-24T00:50:29;16.97;;;11.70;;
8665;SDS011;4370;48.916;8.380;2023-01-24T00:52:56;18.57;;;12.33;;
8665;SDS011;4370;48.916;8.380;2023-01-24T00:55:22;17.50;;;11.43;;
8665;SDS011;4370;48.916;8.380;2023-01-24T00:57:47;17.83;;;12.33;;
8665;SDS011;4370;48.916;8.380;2023-01-24T01:00:13;19.63;;;12.00;;
8665;SDS011;4370;48.916;8.380;2023-01-24T01:02:40;16.57;;;11.27;;
8665;SDS011;4370;48.916;8.380;2023-01-24T01:05:06;20.00;;;11.47;;
8665;SDS011;4370;48.916;8.380;2023-01-24T01:07:32;18.03;;;11.80;;
8665;SDS011;4370;48.916;8.380;2023-01-24T01:09:58;18.80;;;11.60;;
8665;SDS011;4370;48.916;8.380;2023-01-24T01:12:24;18.83;;;11.77;;
8665;SDS011;4370;48.916;8.380;2023-01-24T01:14:50;17.23;;;11.40;;
8665;SDS011;4370;48.916;8.380;2023-01-24T01:17:16;17.97;;;12.53;;
8665;SDS011;4370;48.916;8.380;2023-01-24T01:19:42;18.57;;;11.77;;
8665;SDS011;4370;48.916;8.380;2023-01-24T01:22:08;17.83;;;11.50;;
8665;SDS011;4370;48.916;8.380;2023-01-24T01:24:33;17.57;;;12.03;;
8665;SDS011;4370;48.916;8.380;2023-01-24T01:26:59;18.43;;;11.60;;
8665;SDS011;4370;48.916;8.380;2023-01-24T01:29:25;18.17;;;11.53;;
8665;SDS011;4370;48.916;8.380;2023-01-24T01:31:51;20.37;;;11.23;;
8665;SDS011;4370;48.916;8.380;2023-01-24T01:34:17;18.50;;;11.77;;
8665;SDS011;4370;48.916;8.380;2023-01-24T01:36:43;18.53;;;12.23;;
8665;SDS011;4370;48.916;8.380;2023-01-24T01:39:09;19.23;;;11.73;;
8665;SDS011;4370;48.916;8.380;2023-01-24T01:41:35;15.70;;;11.17;;
8665;SDS011;4370;48.916;8.380;2023-01-24T01:47:02;16.73;;;10.93;;
8665;SDS011;4370;48.916;8.380;2023-01-24T01:49:28;16.63;;;10.80;;
8665;SDS011;4370;48.916;8.380;2023-01-24T01:51:58;18.07;;;10.87;;
8665;SDS011;4370;48.916;8.380;2023-01-24T01:54:32;18.20;;;11.87;;
8665;SDS011;4370;48.916;8.380;2023-01-24T01:57:03;17.93;;;11.93;;
8665;SDS011;4370;48.916;8.380;2023-01-24T01:59:37;17.90;;;11.50;;
8665;SDS011;4370;48.916;8.380;2023-01-24T02:02:05;16.73;;;11.97;;
8665;SDS011;4370;48.916;8.380;2023-01-24T02:04:36;18.47;;;11.33;;
8665;SDS011;4370;48.916;8.380;2023-01-24T02:07:10;18.07;;;11.83;;
8665;SDS011;4370;48.916;8.380;2023-01-24T02:09:44;17.60;;;11.77;;
8665;SDS011;4370;48.916;8.380;2023-01-24T02:12:22;16.67;;;11.03;;
8665;SDS011;4370;48.916;8.380;2023-01-24T02:14:53;16.97;;;11.27;;
8665;SDS011;4370;48.916;8.380;2023-01-24T02:17:40;15.57;;;10.90;;
8665;SDS011;4370;48.916;8.380;2023-01-24T02:20:21;19.70;;;11.73;;
8665;SDS011;4370;48.916;8.380;2023-01-24T02:28:24;17.60;;;11.50;;
8665;SDS011;4370;48.916;8.380;2023-01-24T02:30:51;19.63;;;12.10;;
8665;SDS011;4370;48.916;8.380;2023-01-24T02:33:18;20.03;;;12.37;;
8665;SDS011;4370;48.916;8.380;2023-01-24T02:35:45;16.90;;;10.93;;
8665;SDS011;4370;48.916;8.380;2023-01-24T02:38:16;16.47;;;11.37;;
8665;SDS011;4370;48.916;8.380;2023-01-24T02:40:45;20.40;;;12.23;;
8665;SDS011;4370;48.916;8.380;2023-01-24T02:43:13;18.40;;;12.07;;
8665;SDS011;4370;48.916;8.380;2023-01-24T02:45:41;18.97;;;10.93;;
8665;SDS011;4370;48.916;8.380;2023-01-24T02:48:07;18.77;;;11.60;;
8665;SDS011;4370;48.916;8.380;2023-01-24T02:50:33;19.27;;;11.67;;
8665;SDS011;4370;48.916;8.380;2023-01-24T02:53:19;16.90;;;10.83;;
8665;SDS011;4370;48.916;8.380;2023-01-24T02:55:54;16.33;;;11.27;;
8665;SDS011;4370;48.916;8.380;2023-01-24T02:58:38;17.93;;;11.33;;
8665;SDS011;4370;48.916;8.380;2023-01-24T03:01:03;19.17;;;11.37;;
8665;SDS011;4370;48.916;8.380;2023-01-24T03:03:29;17.93;;;11.53;;
8665;SDS011;4370;48.916;8.380;2023-01-24T03:05:55;20.47;;;13.20;;
8665;SDS011;4370;48.916;8.380;2023-01-24T03:08:25;20.20;;;12.53;;
8665;SDS011;4370;48.916;8.380;2023-01-24T03:10:53;17.97;;;11.63;;
8665;SDS011;4370;48.916;8.380;2023-01-24T03:13:19;21.20;;;12.63;;
8665;SDS011;4370;48.916;8.380;2023-01-24T03:16:04;19.27;;;12.63;;
8665;SDS011;4370;48.916;8.380;2023-01-24T03:18:49;17.37;;;11.87;;
8665;SDS011;4370;48.916;8.380;2023-01-24T03:21:34;17.37;;;12.30;;
8665;SDS011;4370;48.916;8.380;2023-01-24T03:24:19;17.37;;;11.87;;
8665;SDS011;4370;48.916;8.380;2023-01-24T03:27:04;19.97;;;12.90;;
8665;SDS011;4370;48.916;8.380;2023-01-24T03:29:48;18.87;;;12.67;;
8665;SDS011;4370;48.916;8.380;2023-01-24T03:32:33;20.63;;;12.93;;
8665;SDS011;4370;48.916;8.380;2023-01-24T03:35:17;20.07;;;12.20;;
8665;SDS011;4370;48.916;8.380;2023-01-24T03:37:42;20.90;;;12.40;;
8665;SDS011;4370;48.916;8.380;2023-01-24T03:40:27;18.47;;;11.87;;
8665;SDS011;4370;48.916;8.380;2023-01-24T03:42:53;21.07;;;11.60;;
8665;SDS011;4370;48.916;8.380;2023-01-24T03:45:20;21.07;;;12.80;;
8665;SDS011;4370;48.916;8.380;2023-01-24T03:47:49;19.83;;;12.83;;
8665;SDS011;4370;48.916;8.380;2023-01-24T03:50:26;22.60;;;13.47;;
8665;SDS011;4370;48.916;8.380;2023-01-24T03:53:12;19.97;;;12.80;;
8665;SDS011;4370;48.916;8.380;2023-01-24T03:55:38;22.00;;;12.80;;
8665;SDS011;4370;48.916;8.380;2023-01-24T03:58:05;20.33;;;12.57;;
8665;SDS011;4370;48.916;8.380;2023-01-24T04:00:31;18.80;;;12.03;;
8665;SDS011;4370;48.916;8.380;2023-01-24T04:02:57;21.13;;;12.97;;
8665;SDS011;4370;48.916;8.380;2023-01-24T04:05:24;21.67;;;12.63;;
8665;SDS011;4370;48.916;8.380;2023-01-24T04:07:50;20.93;;;12.83;;
8665;SDS011;4370;48.916;8.380;2023-01-24T04:10:16;22.63;;;12.73;;
8665;SDS011;4370;48.916;8.380;2023-01-24T04:12:42;19.43;;;12.57;;
8665;SDS011;4370;48.916;8.380;2023-01-24T04:15:10;19.37;;;11.53;;
8665;SDS011;4370;48.916;8.380;2023-01-24T04:17:42;22.77;;;12.80;;
8665;SDS011;4370;48.916;8.380;2023-01-24T04:20:08;21.73;;;13.07;;
8665;SDS011;4370;48.916;8.380;2023-01-24T04:22:34;19.37;;;12.70;;
8665;SDS011;4370;48.916;8.380;2023-01-24T04:25:00;21.13;;;11.90;;
8665;SDS011;4370;48.916;8.380;2023-01-24T04:27:26;22.83;;;13.33;;
8665;SDS011;4370;48.916;8.380;2023-01-24T04:29:52;22.10;;;13.00;;
8665;SDS011;4370;48.916;8.380;2023-01-24T04:32:18;18.07;;;11.60;;
8665;SDS011;4370;48.916;8.380;2023-01-24T04:34:44;20.93;;;13.03;;
8665;SDS011;4370;48.916;8.380;2023-01-24T04:37:09;22.67;;;13.23;;
8665;SDS011;4370;48.916;8.380;2023-01-24T04:39:35;18.80;;;12.57;;
8665;SDS011;4370;48.916;8.380;2023-01-24T04:42:01;20.73;;;13.00;;
8665;SDS011;4370;48.916;8.380;2023-01-24T04:44:27;23.20;;;13.13;;
8665;SDS011;4370;48.916;8.380;2023-01-24T04:46:53;21.37;;;12.87;;
8665;SDS011;4370;48.916;8.380;2023-01-24T04:49:18;22.00;;;13.27;;
8665;SDS011;4370;48.916;8.380;2023-01-24T04:51:47;19.57;;;12.63;;
8665;SDS011;4370;48.916;8.380;2023-01-24T04:54:14;20.53;;;13.67;;
8665;SDS011;4370;48.916;8.380;2023-01-24T04:56:40;21.37;;;12.83;;
8665;SDS011;4370;48.916;8.380;2023-01-24T04:59:06;22.70;;;12.90;;
8665;SDS011;4370;48.916;8.380;2023-01-24T05:01:32;22.00;;;13.73;;
8665;SDS011;4370;48.916;8.380;2023-01-24T05:03:58;22.23;;;14.10;;
8665;SDS011;4370;48.916;8.380;2023-01-24T05:06:27;19.00;;;13.30;;
8665;SDS011;4370;48.916;8.380;2023-01-24T05:08:55;19.07;;;12.73;;
8665;SDS011;4370;48.916;8.380;2023-01-24T05:11:21;21.17;;;13.20;;
8665;SDS011;4370;48.916;8.380;2023-01-24T05:13:48;22.83;;;14.20;;
8665;SDS011;4370;48.916;8.380;2023-01-24T05:16:14;22.10;;;13.33;;
8665;SDS011;4370;48.916;8.380;2023-01-24T05:18:40;24.50;;;14.03;;
8665;SDS011;4370;48.916;8.380;2023-01-24T05:21:06;22.10;;;12.63;;
8665;SDS011;4370;48.916;8.380;2023-01-24T05:23:32;18.30;;;12.47;;
8665;SDS011;4370;48.916;8.380;2023-01-24T05:25:59;22.63;;;12.53;;
8665;SDS011;4370;48.916;8.380;2023-01-24T05:28:25;21.17;;;12.53;;
8665;SDS011;4370;48.916;8.380;2023-01-24T05:30:50;21.37;;;12.97;;
8665;SDS011;4370;48.916;8.380;2023-01-24T05:33:16;21.33;;;13.20;;
8665;SDS011;4370;48.916;8.380;2023-01-24T05:35:41;21.60;;;13.40;;
8665;SDS011;4370;48.916;8.380;2023-01-24T05:38:09;23.27;;;14.60;;
8665;SDS011;4370;48.916;8.380;2023-01-24T05:40:35;20.83;;;12.73;;
8665;SDS011;4370;48.916;8.380;2023-01-24T05:43:01;20.90;;;12.63;;
8665;SDS011;4370;48.916;8.380;2023-01-24T05:45:27;21.50;;;13.03;;
8665;SDS011;4370;48.916;8.380;2023-01-24T05:47:52;21.63;;;13.23;;
8665;SDS011;4370;48.916;8.380;2023-01-24T05:50:20;19.83;;;12.67;;
8665;SDS011;4370;48.916;8.380;2023-01-24T05:52:45;20.03;;;12.33;;
8665;SDS011;4370;48.916;8.380;2023-01-24T05:55:11;21.23;;;13.20;;
8665;SDS011;4370;48.916;8.380;2023-01-24T05:57:37;20.83;;;12.53;;
8665;SDS011;4370;48.916;8.380;2023-01-24T06:00:03;22.00;;;12.87;;
8665;SDS011;4370;48.916;8.380;2023-01-24T06:02:29;21.50;;;13.00;;
8665;SDS011;4370;48.916;8.380;2023-01-24T06:04:55;19.90;;;12.17;;
8665;SDS011;4370;48.916;8.380;2023-01-24T06:07:21;20.67;;;13.07;;
8665;SDS011;4370;48.916;8.380;2023-01-24T06:09:47;21.57;;;13.23;;
8665;SDS011;4370;48.916;8.380;2023-01-24T06:12:13;19.13;;;12.17;;
8665;SDS011;4370;48.916;8.380;2023-01-24T06:14:38;20.40;;;12.83;;
8665;SDS011;4370;48.916;8.380;2023-01-24T06:17:04;21.43;;;13.07;;
8665;SDS011;4370;48.916;8.380;2023-01-24T06:19:30;22.33;;;13.43;;
8665;SDS011;4370;48.916;8.380;2023-01-24T06:21:59;20.90;;;12.83;;
8665;SDS011;4370;48.916;8.380;2023-01-24T06:24:33;21.23;;;13.13;;
8665;SDS011;4370;48.916;8.380;2023-01-24T06:26:59;21.90;;;12.97;;
8665;SDS011;4370;48.916;8.380;2023-01-24T06:29:25;21.53;;;13.53;;
8665;SDS011;4370;48.916;8.380;2023-01-24T06:39:39;25.07;;;12.90;;
8665;SDS011;4370;48.916;8.380;2023-01-24T06:42:09;21.63;;;13.53;;
8665;SDS011;4370;48.916;8.380;2023-01-24T06:44:35;24.77;;;13.93;;
8665;SDS011;4370;48.916;8.380;2023-01-24T06:47:01;21.30;;;13.13;;
8665;SDS011;4370;48.916;8.380;2023-01-24T06:49:27;22.17;;;13.40;;
8665;SDS011;4370;48.916;8.380;2023-01-24T06:51:52;23.37;;;14.23;;
8665;SDS011;4370;48.916;8.380;2023-01-24T06:54:18;23.90;;;14.80;;
8665;SDS011;4370;48.916;8.380;2023-01-24T06:56:44;23.33;;;14.00;;
8665;SDS011;4370;48.916;8.380;2023-01-24T06:59:10;20.73;;;13.37;;
8665;SDS011;4370;48.916;8.380;2023-01-24T07:01:36;26.60;;;14.67;;
8665;SDS011;4370;48.916;8.380;2023-01-24T07:04:02;20.77;;;13.13;;
8665;SDS011;4370;48.916;8.380;2023-01-24T07:06:28;23.83;;;14.87;;
8665;SDS011;4370;48.916;8.380;2023-01-24T07:08:54;23.30;;;14.10;;
8665;SDS011;4370;48.916;8.380;2023-01-24T07:11:19;21.10;;;13.87;;
8665;SDS011;4370;48.916;8.380;2023-01-24T07:13:47;24.17;;;13.97;;
8665;SDS011;4370;48.916;8.380;2023-01-24T07:16:14;24.17;;;14.83;;
8665;SDS011;4370;48.916;8.380;2023-01-24T07:18:40;23.47;;;14.60;;
8665;SDS011;4370;48.916;8.380;2023-01-24T07:21:06;23.63;;;14.47;;
8665;SDS011;4370;48.916;8.380;2023-01-24T07:23:32;24.33;;;13.93;;
8665;SDS011;4370;48.916;8.380;2023-01-24T07:25:59;22.90;;;14.50;;
8665;SDS011;4370;48.916;8.380;2023-01-24T07:28:25;24.77;;;14.93;;
8665;SDS011;4370;48.916;8.380;2023-01-24T07:30:51;25.67;;;14.53;;
8665;SDS011;4370;48.916;8.380;2023-01-24T07:33:18;23.30;;;13.67;;
8665;SDS011;4370;48.916;8.380;2023-01-24T07:35:43;21.33;;;13.90;;
8665;SDS011;4370;48.916;8.380;2023-01-24T07:38:09;24.53;;;14.17;;
8665;SDS011;4370;48.916;8.380;2023-01-24T07:40:36;26.07;;;14.40;;
8665;SDS011;4370;48.916;8.380;2023-01-24T07:43:02;21.47;;;13.73;;
8665;SDS011;4370;48.916;8.380;2023-01-24T07:45:29;23.90;;;14.40;;
8665;SDS011;4370;48.916;8.380;2023-01-24T07:47:55;22.47;;;13.17;;
8665;SDS011;4370;48.916;8.380;2023-01-24T07:50:22;20.47;;;13.10;;
8665;SDS011;4370;48.916;8.380;2023-01-24T07:52:52;23.87;;;14.43;;
8665;SDS011;4370;48.916;8.380;2023-01-24T07:55:18;24.80;;;15.27;;
8665;SDS011;4370;48.916;8.380;2023-01-24T07:57:44;23.00;;;13.77;;
8665;SDS011;4370;48.916;8.380;2023-01-24T08:00:10;23.43;;;13.87;;
8665;SDS011;4370;48.916;8.380;2023-01-24T08:02:36;21.93;;;14.23;;
8665;SDS011;4370;48.916;8.380;2023-01-24T08:05:02;26.83;;;14.40;;
8665;SDS011;4370;48.916;8.380;2023-01-24T08:07:28;28.07;;;14.53;;
8665;SDS011;4370;48.916;8.380;2023-01-24T08:09:54;20.77;;;13.47;;
8665;SDS011;4370;48.916;8.380;2023-01-24T08:12:20;22.80;;;13.80;;
8665;SDS011;4370;48.916;8.380;2023-01-24T08:14:46;23.50;;;13.87;;
8665;SDS011;4370;48.916;8.380;2023-01-24T08:17:12;20.13;;;13.70;;
8665;SDS011;4370;48.916;8.380;2023-01-24T08:19:38;23.50;;;14.40;;
8665;SDS011;4370;48.916;8.380;2023-01-24T08:22:04;22.50;;;14.03;;
8665;SDS011;4370;48.916;8.380;2023-01-24T08:24:30;24.00;;;14.33;;
8665;SDS011;4370;48.916;8.380;2023-01-24T08:26:56;23.90;;;13.60;;
8665;SDS011;4370;48.916;8.380;2023-01-24T08:29:24;24.30;;;14.93;;
8665;SDS011;4370;48.916;8.380;2023-01-24T08:31:50;21.77;;;13.73;;
8665;SDS011;4370;48.916;8.380;2023-01-24T08:34:16;23.43;;;14.10;;
8665;SDS011;4370;48.916;8.380;2023-01-24T08:36:42;23.20;;;14.63;;
8665;SDS011;4370;48.916;8.380;2023-01-24T08:39:08;23.20;;;13.97;;
8665;SDS011;4370;48.916;8.380;2023-01-24T08:41:34;21.60;;;13.23;;
8665;SDS011;4370;48.916;8.380;2023-01-24T08:44:00;22.43;;;13.83;;
8665;SDS011;4370;48.916;8.380;2023-01-24T08:46:27;22.33;;;13.63;;
8665;SDS011;4370;48.916;8.380;2023-01-24T08:48:53;24.97;;;14.83;;
8665;SDS011;4370;48.916;8.380;2023-01-24T08:51:19;25.43;;;14.20;;
8665;SDS011;4370;48.916;8.380;2023-01-24T08:53:46;22.57;;;13.53;;
8665;SDS011;4370;48.916;8.380;2023-01-24T08:56:12;23.70;;;14.17;;
8665;SDS011;4370;48.916;8.380;2023-01-24T08:58:38;24.70;;;14.00;;
8665;SDS011;4370;48.916;8.380;2023-01-24T09:01:07;22.30;;;13.80;;
8665;SDS011;4370;48.916;8.380;2023-01-24T09:03:33;21.83;;;14.10;;
8665;SDS011;4370;48.916;8.380;2023-01-24T09:05:59;22.90;;;13.70;;
8665;SDS011;4370;48.916;8.380;2023-01-24T09:08:25;22.80;;;13.67;;
8665;SDS011;4370;48.916;8.380;2023-01-24T09:10:51;20.83;;;13.43;;
8665;SDS011;4370;48.916;8.380;2023-01-24T09:13:17;21.80;;;13.27;;
8665;SDS011;4370;48.916;8.380;2023-01-24T09:15:43;24.40;;;14.20;;
8665;SDS011;4370;48.916;8.380;2023-01-24T09:18:09;21.23;;;13.07;;
8665;SDS011;4370;48.916;8.380;2023-01-24T09:20:35;22.90;;;13.73;;
8665;SDS011;4370;48.916;8.380;2023-01-24T09:23:08;22.80;;;13.80;;
8665;SDS011;4370;48.916;8.380;2023-01-24T09:25:34;24.77;;;14.13;;
8665;SDS011;4370;48.916;8.380;2023-01-24T09:28:00;23.80;;;15.20;;
8665;SDS011;4370;48.916;8.380;2023-01-24T09:30:26;24.00;;;14.13;;
8665;SDS011;4370;48.916;8.380;2023-01-24T09:32:52;22.00;;;13.20;;
8665;SDS011;4370;48.916;8.380;2023-01-24T09:35:18;23.73;;;14.87;;
8665;SDS011;4370;48.916;8.380;2023-01-24T09:37:44;22.77;;;13.93;;
8665;SDS011;4370;48.916;8.380;2023-01-24T09:42:41;20.57;;;13.13;;
8665;SDS011;4370;48.916;8.380;2023-01-24T09:45:22;21.27;;;13.30;;
8665;SDS011;4370;48.916;8.380;2023-01-24T09:47:56;21.47;;;13.77;;
8665;SDS011;4370;48.916;8.380;2023-01-24T09:53:05;22.30;;;13.10;;
8665;SDS011;4370;48.916;8.380;2023-01-24T09:55:42;25.67;;;13.87;;
8665;SDS011;4370;48.916;8.380;2023-01-24T10:01:08;21.40;;;13.40;;
8665;SDS011;4370;48.916;8.380;2023-01-24T10:03:38;27.17;;;13.73;;
8665;SDS011;4370;48.916;8.380;2023-01-24T10:06:24;21.13;;;13.33;;
8665;SDS011;4370;48.916;8.380;2023-01-24T10:09:07;22.27;;;13.97;;
8665;SDS011;4370;48.916;8.380;2023-01-24T10:17:11;23.27;;;13.77;;
8665;SDS011;4370;48.916;8.380;2023-01-24T10:25:18;20.90;;;12.60;;
8665;SDS011;4370;48.916;8.380;2023-01-24T10:27:59;21.70;;;13.07;;
8665;SDS011;4370;48.916;8.380;2023-01-24T10:30:49;20.63;;;12.53;;
8665;SDS011;4370;48.916;8.380;2023-01-24T10:33:27;17.93;;;12.10;;
8665;SDS011;4370;48.916;8.380;2023-01-24T10:36:39;21.43;;;12.73;;
8665;SDS011;4370;48.916;8.380;2023-01-24T10:38:50;21.93;;;13.07;;
8665;SDS011;4370;48.916;8.380;2023-01-24T10:41:21;20.97;;;12.17;;
8665;SDS011;4370;48.916;8.380;2023-01-24T10:43:50;22.10;;;13.47;;
8665;SDS011;4370;48.916;8.380;2023-01-24T10:46:27;21.53;;;12.63;;
8665;SDS011;4370;48.916;8.380;2023-01-24T10:48:58;21.43;;;13.43;;
8665;SDS011;4370;48.916;8.380;2023-01-24T10:51:26;20.67;;;13.20;;
8665;SDS011;4370;48.916;8.380;2023-01-24T10:53:54;21.77;;;12.63;;
8665;SDS011;4370;48.916;8.380;2023-01-24T10:56:25;18.70;;;11.47;;
8665;SDS011;4370;48.916;8.380;2023-01-24T10:59:03;20.40;;;12.67;;
8665;SDS011;4370;48.916;8.380;2023-01-24T11:03:57;20.37;;;12.73;;
8665;SDS011;4370;48.916;8.380;2023-01-24T11:06:37;18.63;;;11.97;;
8665;SDS011;4370;48.916;8.380;2023-01-24T11:09:10;21.00;;;12.63;;
8665;SDS011;4370;48.916;8.380;2023-01-24T11:11:40;19.43;;;12.03;;
8665;SDS011;4370;48.916;8.380;2023-01-24T11:14:14;21.60;;;12.47;;
8665;SDS011;4370;48.916;8.380;2023-01-24T11:16:46;21.60;;;12.77;;
8665;SDS011;4370;48.916;8.380;2023-01-24T11:19:20;21.23;;;12.13;;
8665;SDS011;4370;48.916;8.380;2023-01-24T11:21:51;21.43;;;12.83;;
8665;SDS011;4370;48.916;8.380;2023-01-24T11:24:19;17.63;;;11.80;;
8665;SDS011;4370;48.916;8.380;2023-01-24T11:29:37;19.73;;;12.10;;
8665;SDS011;4370;48.916;8.380;2023-01-24T11:32:26;19.83;;;12.23;;
8665;SDS011;4370;48.916;8.380;2023-01-24T11:35:08;19.03;;;11.63;;
8665;SDS011;4370;48.916;8.380;2023-01-24T11:37:51;17.73;;;11.57;;
8665;SDS011;4370;48.916;8.380;2023-01-24T11:40:40;20.47;;;12.40;;
8665;SDS011;4370;48.916;8.380;2023-01-24T11:46:34;18.10;;;11.20;;
8665;SDS011;4370;48.916;8.380;2023-01-24T11:54:33;17.77;;;12.17;;
8665;SDS011;4370;48.916;8.380;2023-01-24T11:57:25;20.37;;;11.60;;
8665;SDS011;4370;48.916;8.380;2023-01-24T12:00:24;19.00;;;11.40;;
8665;SDS011;4370;48.916;8.380;2023-01-24T12:05:24;15.27;;;11.07;;
8665;SDS011;4370;48.916;8.380;2023-01-24T12:11:00;18.30;;;11.87;;
8665;SDS011;4370;48.916;8.380;2023-01-24T12:13:48;17.43;;;10.90;;
8665;SDS011;4370;48.916;8.380;2023-01-24T12:16:40;17.37;;;11.57;;
8665;SDS011;4370;48.916;8.380;2023-01-24T12:22:12;18.63;;;11.23;;
8665;SDS011;4370;48.916;8.380;2023-01-24T12:24:42;19.13;;;11.90;;
8665;SDS011;4370;48.916;8.380;2023-01-24T12:27:14;17.17;;;10.77;;
8665;SDS011;4370;48.916;8.380;2023-01-24T12:32:21;18.73;;;10.97;;
8665;SDS011;4370;48.916;8.380;2023-01-24T12:42:42;18.20;;;10.50;;
8665;SDS011;4370;48.916;8.380;2023-01-24T12:45:19;15.57;;;9.73;;
8665;SDS011;4370;48.916;8.380;2023-01-24T12:47:57;17.17;;;11.13;;
8665;SDS011;4370;48.916;8.380;2023-01-24T12:50:37;15.30;;;10.60;;
8665;SDS011;4370;48.916;8.380;2023-01-24T12:53:28;17.23;;;10.83;;
8665;SDS011;4370;48.916;8.380;2023-01-24T12:56:00;18.00;;;10.80;;
8665;SDS011;4370;48.916;8.380;2023-01-24T12:58:37;18.10;;;10.17;;
8665;SDS011;4370;48.916;8.380;2023-01-24T13:11:46;16.37;;;10.13;;
8665;SDS011;4370;48.916;8.380;2023-01-24T13:19:39;13.33;;;9.00;;
8665;SDS011;4370;48.916;8.380;2023-01-24T13:25:19;15.47;;;9.30;;
8665;SDS011;4370;48.916;8.380;2023-01-24T13:28:06;14.93;;;9.47;;
8665;SDS011;4370;48.916;8.380;2023-01-24T13:33:13;14.73;;;9.40;;
8665;SDS011;4370;48.916;8.380;2023-01-24T13:35:47;14.80;;;10.03;;
8665;SDS011;4370;48.916;8.380;2023-01-24T13:38:25;15.40;;;8.97;;
8665;SDS011;4370;48.916;8.380;2023-01-24T13:40:58;15.13;;;10.07;;
8665;SDS011;4370;48.916;8.380;2023-01-24T13:49:19;14.33;;;9.50;;
8665;SDS011;4370;48.916;8.380;2023-01-24T13:52:04;16.43;;;10.10;;
8665;SDS011;4370;48.916;8.380;2023-01-24T13:54:48;15.53;;;9.20;;
8665;SDS011;4370;48.916;8.380;2023-01-24T13:57:21;13.97;;;9.53;;
8665;SDS011;4370;48.916;8.380;2023-01-24T14:07:52;17.77;;;9.60;;
8665;SDS011;4370;48.916;8.380;2023-01-24T14:10:22;14.80;;;9.17;;
8665;SDS011;4370;48.916;8.380;2023-01-24T14:13:00;14.17;;;9.53;;
8665;SDS011;4370;48.916;8.380;2023-01-24T14:15:27;15.07;;;9.27;;
8665;SDS011;4370;48.916;8.380;2023-01-24T14:18:26;15.30;;;10.20;;
8665;SDS011;4370;48.916;8.380;2023-01-24T14:21:25;14.47;;;9.23;;
8665;SDS011;4370;48.916;8.380;2023-01-24T14:24:01;15.10;;;9.70;;
8665;SDS011;4370;48.916;8.380;2023-01-24T14:26:43;15.67;;;9.93;;
8665;SDS011;4370;48.916;8.380;2023-01-24T14:29:12;15.70;;;10.03;;
8665;SDS011;4370;48.916;8.380;2023-01-24T14:31:41;13.93;;;9.37;;
8665;SDS011;4370;48.916;8.380;2023-01-24T14:34:24;15.27;;;9.73;;
8665;SDS011;4370;48.916;8.380;2023-01-24T14:36:58;15.07;;;9.27;;
8665;SDS011;4370;48.916;8.380;2023-01-24T14:39:28;16.50;;;10.10;;
8665;SDS011;4370;48.916;8.380;2023-01-24T14:41:57;16.60;;;10.17;;
8665;SDS011;4370;48.916;8.380;2023-01-24T14:44:31;16.43;;;10.27;;
8665;SDS011;4370;48.916;8.380;2023-01-24T14:47:11;15.33;;;9.37;;
8665;SDS011;4370;48.916;8.380;2023-01-24T14:49:47;15.67;;;9.87;;
8665;SDS011;4370;48.916;8.380;2023-01-24T14:52:16;15.97;;;9.30;;
8665;SDS011;4370;48.916;8.380;2023-01-24T14:57:52;16.00;;;9.73;;
8665;SDS011;4370;48.916;8.380;2023-01-24T15:00:18;15.20;;;10.33;;
8665;SDS011;4370;48.916;8.380;2023-01-24T15:08:01;14.93;;;9.80;;
8665;SDS011;4370;48.916;8.380;2023-01-24T15:10:30;16.43;;;9.80;;
8665;SDS011;4370;48.916;8.380;2023-01-24T15:13:01;16.10;;;10.03;;
8665;SDS011;4370;48.916;8.380;2023-01-24T15:15:29;15.00;;;9.87;;
8665;SDS011;4370;48.916;8.380;2023-01-24T15:17:59;13.87;;;9.33;;
8665;SDS011;4370;48.916;8.380;2023-01-24T15:20:30;14.73;;;9.73;;
8665;SDS011;4370;48.916;8.380;2023-01-24T15:22:57;16.90;;;9.97;;
8665;SDS011;4370;48.916;8.380;2023-01-24T15:25:29;15.20;;;10.07;;
8665;SDS011;4370;48.916;8.380;2023-01-24T15:27:57;15.33;;;9.80;;
8665;SDS011;4370;48.916;8.380;2023-01-24T15:30:33;15.20;;;8.80;;
8665;SDS011;4370;48.916;8.380;2023-01-24T15:33:00;17.43;;;10.23;;
8665;SDS011;4370;48.916;8.380;2023-01-24T15:35:44;16.47;;;9.73;;
8665;SDS011;4370;48.916;8.380;2023-01-24T15:38:21;17.80;;;10.67;;
8665;SDS011;4370;48.916;8.380;2023-01-24T15:41:11;16.77;;;10.03;;
8665;SDS011;4370;48.916;8.380;2023-01-24T15:43:49;16.20;;;9.90;;
8665;SDS011;4370;48.916;8.380;2023-01-24T15:54:29;18.30;;;10.67;;
8665;SDS011;4370;48.916;8.380;2023-01-24T15:56:57;16.77;;;10.07;;
8665;SDS011;4370;48.916;8.380;2023-01-24T15:59:24;18.57;;;11.13;;
8665;SDS011;4370;48.916;8.380;2023-01-24T16:01:50;16.20;;;10.57;;
8665;SDS011;4370;48.916;8.380;2023-01-24T16:04:20;18.15;;;11.60;;
8665;SDS011;4370;48.916;8.380;2023-01-24T16:06:47;18.80;;;11.30;;
8665;SDS011;4370;48.916;8.380;2023-01-24T16:09:13;18.77;;;11.40;;
8665;SDS011;4370;48.916;8.380;2023-01-24T16:11:40;18.03;;;11.57;;
8665;SDS011;4370;48.916;8.380;2023-01-24T16:14:12;16.73;;;10.53;;
8665;SDS011;4370;48.916;8.380;2023-01-24T16:16:43;19.33;;;10.73;;
8665;SDS011;4370;48.916;8.380;2023-01-24T16:19:16;18.27;;;11.30;;
8665;SDS011;4370;48.916;8.380;2023-01-24T16:21:43;20.53;;;12.13;;
8665;SDS011;4370;48.916;8.380;2023-01-24T16:24:09;18.70;;;11.67;;
8665;SDS011;4370;48.916;8.380;2023-01-24T16:26:35;17.27;;;10.73;;
8665;SDS011;4370;48.916;8.380;2023-01-24T16:29:02;18.10;;;11.77;;
8665;SDS011;4370;48.916;8.380;2023-01-24T16:31:33;17.73;;;11.20;;
8665;SDS011;4370;48.916;8.380;2023-01-24T16:33:59;20.17;;;12.27;;
8665;SDS011;4370;48.916;8.380;2023-01-24T16:36:25;16.13;;;10.70;;
8665;SDS011;4370;48.916;8.380;2023-01-24T16:38:51;18.70;;;11.30;;
8665;SDS011;4370;48.916;8.380;2023-01-24T16:41:17;16.23;;;11.20;;
8665;SDS011;4370;48.916;8.380;2023-01-24T16:43:43;18.13;;;11.27;;
8665;SDS011;4370;48.916;8.380;2023-01-24T16:46:15;19.83;;;12.03;;
8665;SDS011;4370;48.916;8.380;2023-01-24T16:48:43;20.57;;;11.53;;
8665;SDS011;4370;48.916;8.380;2023-01-24T16:51:09;19.53;;;11.33;;
8665;SDS011;4370;48.916;8.380;2023-01-24T16:53:36;20.30;;;12.53;;
8665;SDS011;4370;48.916;8.380;2023-01-24T16:56:02;22.70;;;11.63;;
8665;SDS011;4370;48.916;8.380;2023-01-24T16:58:28;20.20;;;11.67;;
8665;SDS011;4370;48.916;8.380;2023-01-24T17:00:55;21.27;;;12.53;;
8665;SDS011;4370;48.916;8.380;2023-01-24T17:03:20;20.83;;;11.83;;
8665;SDS011;4370;48.916;8.380;2023-01-24T17:05:46;19.13;;;11.63;;